sensor_id;sensor_type;location;lat;lon;timestamp;temperature;humidity
39849;DHT22;25518;47.878;15.914;2022-11-21T00:00:09;0.20;99.90
39849;DHT22;25518;47.878;15.914;2022-11-21T00:03:00;0.20;99.90
39849;DHT22;25518;47.878;15.914;2022-11-21T00:05:50;0.30;99.90
39849;DHT22;25518;47.878;15.914;2022-11-21T00:08:40;0.10;99.90
39849;DHT22;25518;47.878;15.914;2022-11-21T00:11:29;0.10;99.90
39849;DHT22;25518;47.878;15.914;2022-11-21T00:14:19;-0.10;99.90
39849;DHT22;25518;47.878;15.914;2022-11-21T00:17:09;-0.10;99.90
39849;DHT22;25518;47.878;15.914;2022-11-21T00:19:58;-0.20;99.90
39849;DHT22;25518;47.878;15.914;2022-11-21T00:22:49;-0.20;99.90
39849;DHT22;25518;47.878;15.914;2022-11-21T00:25:38;-1.00;99.90
39849;DHT22;25518;47.878;15.914;2022-11-21T00:28:28;-0.10;99.90
39849;DHT22;25518;47.878;15.914;2022-11-21T00:31:21;-0.20;99.90
39849;DHT22;25518;47.878;15.914;2022-11-21T00:34:11;-0.20;99.90
39849;DHT22;25518;47.878;15.914;2022-11-21T00:37:00;-0.20;99.90
39849;DHT22;25518;47.878;15.914;2022-11-21T00:39:50;-1.50;99.90
39849;DHT22;25518;47.878;15.914;2022-11-21T00:42:40;-0.30;99.90
39849;DHT22;25518;47.878;15.914;2022-11-21T00:45:29;-0.20;99.90
39849;DHT22;25518;47.878;15.914;2022-11-21T00:48:19;-0.30;99.90
39849;DHT22;25518;47.878;15.914;2022-11-21T00:51:08;-0.30;99.90
39849;DHT22;25518;47.878;15.914;2022-11-21T00:53:58;-0.20;99.90
39849;DHT22;25518;47.878;15.914;2022-11-21T00:56:48;-0.40;99.90
39849;DHT22;25518;47.878;15.914;2022-11-21T00:59:37;-0.20;99.90
39849;DHT22;25518;47.878;15.914;2022-11-21T01:02:27;-0.30;99.90
39849;DHT22;25518;47.878;15.914;2022-11-21T01:05:16;-0.20;99.90
39849;DHT22;25518;47.878;15.914;2022-11-21T01:08:06;-0.20;99.90
39849;DHT22;25518;47.878;15.914;2022-11-21T01:10:56;-0.20;99.90
39849;DHT22;25518;47.878;15.914;2022-11-21T01:13:46;-0.20;99.90
39849;DHT22;25518;47.878;15.914;2022-11-21T01:16:36;-0.20;99.90
39849;DHT22;25518;47.878;15.914;2022-11-21T01:19:26;-0.10;99.90
39849;DHT22;25518;47.878;15.914;2022-11-21T01:22:16;-0.20;99.90
39849;DHT22;25518;47.878;15.914;2022-11-21T01:25:06;-0.30;99.90
39849;DHT22;25518;47.878;15.914;2022-11-21T01:27:56;-0.30;99.90
39849;DHT22;25518;47.878;15.914;2022-11-21T01:30:46;-0.30;99.90
39849;DHT22;25518;47.878;15.914;2022-11-21T01:33:36;-0.20;99.90
39849;DHT22;25518;47.878;15.914;2022-11-21T01:36:29;-0.20;99.90
39849;DHT22;25518;47.878;15.914;2022-11-21T01:39:18;-0.10;99.90
39849;DHT22;25518;47.878;15.914;2022-11-21T01:42:11;-0.20;99.90
39849;DHT22;25518;47.878;15.914;2022-11-21T01:45:01;-0.10;99.90
39849;DHT22;25518;47.878;15.914;2022-11-21T01:47:51;0.00;99.90
39849;DHT22;25518;47.878;15.914;2022-11-21T01:50:41;0.10;99.90
39849;DHT22;25518;47.878;15.914;2022-11-21T01:53:32;0.00;99.90
39849;DHT22;25518;47.878;15.914;2022-11-21T01:56:23;-0.10;99.90
39849;DHT22;25518;47.878;15.914;2022-11-21T01:59:20;0.00;99.90
39849;DHT22;25518;47.878;15.914;2022-11-21T02:02:12;-0.10;99.90
39849;DHT22;25518;47.878;15.914;2022-11-21T02:05:06;-0.30;99.90
39849;DHT22;25518;47.878;15.914;2022-11-21T02:08:02;-0.30;99.90
39849;DHT22;25518;47.878;15.914;2022-11-21T02:14:06;-0.10;99.90
39849;DHT22;25518;47.878;15.914;2022-11-21T02:17:00;-0.20;99.90
39849;DHT22;25518;47.878;15.914;2022-11-21T02:19:55;-0.20;99.90
39849;DHT22;25518;47.878;15.914;2022-11-21T02:25:47;-0.30;99.90
39849;DHT22;25518;47.878;15.914;2022-11-21T02:28:38;-0.30;99.90
39849;DHT22;25518;47.878;15.914;2022-11-21T02:31:28;-0.20;99.90
39849;DHT22;25518;47.878;15.914;2022-11-21T02:34:17;-0.10;99.90
39849;DHT22;25518;47.878;15.914;2022-11-21T02:37:07;-0.10;99.90
39849;DHT22;25518;47.878;15.914;2022-11-21T02:40:01;-0.10;99.90
39849;DHT22;25518;47.878;15.914;2022-11-21T02:43:13;-0.10;99.90
39849;DHT22;25518;47.878;15.914;2022-11-21T02:46:04;-0.30;99.90
39849;DHT22;25518;47.878;15.914;2022-11-21T02:48:55;-0.20;99.90
39849;DHT22;25518;47.878;15.914;2022-11-21T02:51:45;-0.10;99.90
39849;DHT22;25518;47.878;15.914;2022-11-21T02:54:35;-0.20;99.90
39849;DHT22;25518;47.878;15.914;2022-11-21T02:57:24;-0.20;99.90
39849;DHT22;25518;47.878;15.914;2022-11-21T03:00:14;-0.10;99.90
39849;DHT22;25518;47.878;15.914;2022-11-21T03:20:00;-0.40;99.90
39849;DHT22;25518;47.878;15.914;2022-11-21T03:22:49;-0.30;99.90
39849;DHT22;25518;47.878;15.914;2022-11-21T03:25:39;-0.20;99.90
39849;DHT22;25518;47.878;15.914;2022-11-21T03:28:29;-0.10;99.90
39849;DHT22;25518;47.878;15.914;2022-11-21T03:31:19;0.00;99.90
39849;DHT22;25518;47.878;15.914;2022-11-21T03:34:08;0.00;99.90
39849;DHT22;25518;47.878;15.914;2022-11-21T03:36:58;0.00;99.90
39849;DHT22;25518;47.878;15.914;2022-11-21T03:39:47;0.00;99.90
39849;DHT22;25518;47.878;15.914;2022-11-21T03:42:37;0.10;99.90
39849;DHT22;25518;47.878;15.914;2022-11-21T03:45:27;0.10;99.90
39849;DHT22;25518;47.878;15.914;2022-11-21T03:48:16;0.00;99.90
39849;DHT22;25518;47.878;15.914;2022-11-21T03:51:06;0.20;99.90
39849;DHT22;25518;47.878;15.914;2022-11-21T03:53:55;0.10;99.90
39849;DHT22;25518;47.878;15.914;2022-11-21T03:56:45;0.10;99.90
39849;DHT22;25518;47.878;15.914;2022-11-21T03:59:35;0.00;99.90
39849;DHT22;25518;47.878;15.914;2022-11-21T04:02:24;0.20;99.90
39849;DHT22;25518;47.878;15.914;2022-11-21T04:05:14;0.30;99.90
39849;DHT22;25518;47.878;15.914;2022-11-21T04:08:04;0.40;99.90
39849;DHT22;25518;47.878;15.914;2022-11-21T04:10:54;0.40;99.90
39849;DHT22;25518;47.878;15.914;2022-11-21T04:13:43;0.30;99.90
39849;DHT22;25518;47.878;15.914;2022-11-21T04:16:33;0.30;99.90
39849;DHT22;25518;47.878;15.914;2022-11-21T04:19:22;0.20;99.90
39849;DHT22;25518;47.878;15.914;2022-11-21T04:22:12;0.20;99.90
39849;DHT22;25518;47.878;15.914;2022-11-21T04:25:01;0.30;99.90
39849;DHT22;25518;47.878;15.914;2022-11-21T04:27:55;0.40;99.90
39849;DHT22;25518;47.878;15.914;2022-11-21T04:30:45;0.50;99.90
39849;DHT22;25518;47.878;15.914;2022-11-21T04:33:34;0.60;99.90
39849;DHT22;25518;47.878;15.914;2022-11-21T04:36:24;0.70;99.90
39849;DHT22;25518;47.878;15.914;2022-11-21T04:39:13;0.70;99.90
39849;DHT22;25518;47.878;15.914;2022-11-21T04:42:03;0.90;99.90
39849;DHT22;25518;47.878;15.914;2022-11-21T04:44:52;0.90;99.90
39849;DHT22;25518;47.878;15.914;2022-11-21T04:47:44;0.90;99.90
39849;DHT22;25518;47.878;15.914;2022-11-21T04:50:34;1.00;99.90
39849;DHT22;25518;47.878;15.914;2022-11-21T04:53:24;1.00;99.90
39849;DHT22;25518;47.878;15.914;2022-11-21T04:56:13;1.10;99.90
39849;DHT22;25518;47.878;15.914;2022-11-21T04:59:04;1.10;99.90
39849;DHT22;25518;47.878;15.914;2022-11-21T05:01:54;1.00;99.90
39849;DHT22;25518;47.878;15.914;2022-11-21T05:04:43;0.90;99.90
39849;DHT22;25518;47.878;15.914;2022-11-21T05:07:33;0.80;99.90
39849;DHT22;25518;47.878;15.914;2022-11-21T05:10:23;0.90;99.90
39849;DHT22;25518;47.878;15.914;2022-11-21T05:13:12;0.80;99.90
39849;DHT22;25518;47.878;15.914;2022-11-21T05:16:09;0.80;99.90
39849;DHT22;25518;47.878;15.914;2022-11-21T05:18:59;0.80;99.90
39849;DHT22;25518;47.878;15.914;2022-11-21T05:21:49;0.90;99.90
39849;DHT22;25518;47.878;15.914;2022-11-21T05:24:38;0.90;99.90
39849;DHT22;25518;47.878;15.914;2022-11-21T05:27:28;1.00;99.90
39849;DHT22;25518;47.878;15.914;2022-11-21T05:30:18;0.90;99.90
39849;DHT22;25518;47.878;15.914;2022-11-21T05:33:07;0.90;99.90
39849;DHT22;25518;47.878;15.914;2022-11-21T05:35:57;0.90;99.90
39849;DHT22;25518;47.878;15.914;2022-11-21T05:38:46;0.90;99.90
39849;DHT22;25518;47.878;15.914;2022-11-21T05:41:36;0.90;99.90
39849;DHT22;25518;47.878;15.914;2022-11-21T05:44:26;0.90;99.90
39849;DHT22;25518;47.878;15.914;2022-11-21T05:47:15;0.90;99.90
39849;DHT22;25518;47.878;15.914;2022-11-21T05:50:05;1.00;99.90
39849;DHT22;25518;47.878;15.914;2022-11-21T05:53:00;1.00;99.90
39849;DHT22;25518;47.878;15.914;2022-11-21T05:55:50;1.00;99.90
39849;DHT22;25518;47.878;15.914;2022-11-21T05:58:41;1.10;99.90
39849;DHT22;25518;47.878;15.914;2022-11-21T06:01:30;1.20;99.90
39849;DHT22;25518;47.878;15.914;2022-11-21T06:04:40;1.10;99.90
39849;DHT22;25518;47.878;15.914;2022-11-21T06:07:29;1.10;99.90
39849;DHT22;25518;47.878;15.914;2022-11-21T06:10:19;1.10;99.90
39849;DHT22;25518;47.878;15.914;2022-11-21T06:13:08;1.20;99.90
39849;DHT22;25518;47.878;15.914;2022-11-21T06:16:12;1.20;99.90
39849;DHT22;25518;47.878;15.914;2022-11-21T06:19:02;1.30;99.90
39849;DHT22;25518;47.878;15.914;2022-11-21T06:21:52;1.30;99.90
39849;DHT22;25518;47.878;15.914;2022-11-21T06:24:41;1.20;99.90
39849;DHT22;25518;47.878;15.914;2022-11-21T06:27:31;1.30;99.90
39849;DHT22;25518;47.878;15.914;2022-11-21T06:30:21;1.40;99.90
39849;DHT22;25518;47.878;15.914;2022-11-21T06:33:10;1.20;99.90
39849;DHT22;25518;47.878;15.914;2022-11-21T06:36:06;1.30;99.90
39849;DHT22;25518;47.878;15.914;2022-11-21T06:38:56;1.10;99.90
39849;DHT22;25518;47.878;15.914;2022-11-21T06:41:46;1.30;99.90
39849;DHT22;25518;47.878;15.914;2022-11-21T06:44:39;1.20;99.90
39849;DHT22;25518;47.878;15.914;2022-11-21T06:47:33;1.20;99.90
39849;DHT22;25518;47.878;15.914;2022-11-21T06:50:23;1.10;99.90
39849;DHT22;25518;47.878;15.914;2022-11-21T06:53:12;1.10;99.90
39849;DHT22;25518;47.878;15.914;2022-11-21T06:56:02;1.10;99.90
39849;DHT22;25518;47.878;15.914;2022-11-21T06:58:53;1.00;99.90
39849;DHT22;25518;47.878;15.914;2022-11-21T07:01:43;1.00;99.90
39849;DHT22;25518;47.878;15.914;2022-11-21T07:04:32;1.00;99.90
39849;DHT22;25518;47.878;15.914;2022-11-21T07:07:22;1.00;99.90
39849;DHT22;25518;47.878;15.914;2022-11-21T07:10:12;1.00;99.90
39849;DHT22;25518;47.878;15.914;2022-11-21T07:13:02;1.00;99.90
39849;DHT22;25518;47.878;15.914;2022-11-21T07:16:12;1.00;99.90
39849;DHT22;25518;47.878;15.914;2022-11-21T07:19:02;1.00;99.90
39849;DHT22;25518;47.878;15.914;2022-11-21T07:21:52;1.10;99.90
39849;DHT22;25518;47.878;15.914;2022-11-21T07:24:41;1.00;99.90
39849;DHT22;25518;47.878;15.914;2022-11-21T07:27:31;1.10;99.90
39849;DHT22;25518;47.878;15.914;2022-11-21T07:30:21;1.10;99.90
39849;DHT22;25518;47.878;15.914;2022-11-21T07:33:10;1.10;99.90
39849;DHT22;25518;47.878;15.914;2022-11-21T07:36:00;1.10;99.90
39849;DHT22;25518;47.878;15.914;2022-11-21T07:38:50;1.20;99.90
39849;DHT22;25518;47.878;15.914;2022-11-21T07:41:39;1.20;99.90
39849;DHT22;25518;47.878;15.914;2022-11-21T07:44:29;1.20;99.90
39849;DHT22;25518;47.878;15.914;2022-11-21T07:47:19;1.30;99.90
39849;DHT22;25518;47.878;15.914;2022-11-21T07:50:10;1.40;99.90
39849;DHT22;25518;47.878;15.914;2022-11-21T07:53:03;1.40;99.90
39849;DHT22;25518;47.878;15.914;2022-11-21T07:55:53;1.50;99.90
39849;DHT22;25518;47.878;15.914;2022-11-21T07:58:42;1.40;99.90
39849;DHT22;25518;47.878;15.914;2022-11-21T08:01:32;1.50;99.90
39849;DHT22;25518;47.878;15.914;2022-11-21T08:04:22;1.50;99.90
39849;DHT22;25518;47.878;15.914;2022-11-21T08:07:12;1.60;99.90
39849;DHT22;25518;47.878;15.914;2022-11-21T08:10:01;1.50;99.90
39849;DHT22;25518;47.878;15.914;2022-11-21T08:12:51;1.50;99.90
39849;DHT22;25518;47.878;15.914;2022-11-21T08:15:41;1.50;99.90
39849;DHT22;25518;47.878;15.914;2022-11-21T08:18:30;1.60;99.90
39849;DHT22;25518;47.878;15.914;2022-11-21T08:21:20;1.60;99.90
39849;DHT22;25518;47.878;15.914;2022-11-21T08:24:10;1.60;99.90
39849;DHT22;25518;47.878;15.914;2022-11-21T08:27:02;1.60;99.90
39849;DHT22;25518;47.878;15.914;2022-11-21T08:29:52;1.60;99.90
39849;DHT22;25518;47.878;15.914;2022-11-21T08:32:41;1.70;99.90
39849;DHT22;25518;47.878;15.914;2022-11-21T08:35:31;1.80;99.90
39849;DHT22;25518;47.878;15.914;2022-11-21T08:38:23;1.90;99.90
39849;DHT22;25518;47.878;15.914;2022-11-21T08:41:13;1.90;99.90
39849;DHT22;25518;47.878;15.914;2022-11-21T08:44:23;1.90;99.90
39849;DHT22;25518;47.878;15.914;2022-11-21T08:47:12;1.90;99.90
39849;DHT22;25518;47.878;15.914;2022-11-21T08:50:02;2.00;99.90
39849;DHT22;25518;47.878;15.914;2022-11-21T08:52:52;1.80;99.90
39849;DHT22;25518;47.878;15.914;2022-11-21T08:55:41;1.80;99.90
39849;DHT22;25518;47.878;15.914;2022-11-21T08:58:31;1.90;99.90
39849;DHT22;25518;47.878;15.914;2022-11-21T09:01:21;2.00;99.90
39849;DHT22;25518;47.878;15.914;2022-11-21T09:04:12;2.20;99.90
39849;DHT22;25518;47.878;15.914;2022-11-21T09:07:01;2.10;99.90
39849;DHT22;25518;47.878;15.914;2022-11-21T09:09:52;2.20;99.90
39849;DHT22;25518;47.878;15.914;2022-11-21T09:12:42;2.10;99.90
39849;DHT22;25518;47.878;15.914;2022-11-21T09:15:31;2.40;99.90
39849;DHT22;25518;47.878;15.914;2022-11-21T09:18:41;2.30;99.90
39849;DHT22;25518;47.878;15.914;2022-11-21T09:21:32;2.40;99.90
39849;DHT22;25518;47.878;15.914;2022-11-21T09:24:22;2.30;99.90
39849;DHT22;25518;47.878;15.914;2022-11-21T09:27:11;2.40;99.90
39849;DHT22;25518;47.878;15.914;2022-11-21T09:30:01;2.40;99.90
39849;DHT22;25518;47.878;15.914;2022-11-21T09:32:51;2.30;99.90
39849;DHT22;25518;47.878;15.914;2022-11-21T09:35:41;2.50;99.90
39849;DHT22;25518;47.878;15.914;2022-11-21T09:38:30;2.60;99.90
39849;DHT22;25518;47.878;15.914;2022-11-21T09:41:47;2.60;99.90
39849;DHT22;25518;47.878;15.914;2022-11-21T09:47:51;2.60;99.90
39849;DHT22;25518;47.878;15.914;2022-11-21T09:50:53;2.70;99.90
39849;DHT22;25518;47.878;15.914;2022-11-21T09:53:50;2.80;99.90
39849;DHT22;25518;47.878;15.914;2022-11-21T09:56:43;2.80;99.90
39849;DHT22;25518;47.878;15.914;2022-11-21T09:59:35;2.70;99.90
39849;DHT22;25518;47.878;15.914;2022-11-21T10:02:25;2.80;99.90
39849;DHT22;25518;47.878;15.914;2022-11-21T10:05:16;2.80;99.90
39849;DHT22;25518;47.878;15.914;2022-11-21T10:08:22;2.90;99.90
39849;DHT22;25518;47.878;15.914;2022-11-21T10:17:30;3.20;99.90
39849;DHT22;25518;47.878;15.914;2022-11-21T10:29:27;3.20;99.90
39849;DHT22;25518;47.878;15.914;2022-11-21T10:32:21;3.30;99.90
39849;DHT22;25518;47.878;15.914;2022-11-21T10:35:46;3.40;99.90
39849;DHT22;25518;47.878;15.914;2022-11-21T10:38:25;3.30;99.90
39849;DHT22;25518;47.878;15.914;2022-11-21T10:44:33;3.80;99.90
39849;DHT22;25518;47.878;15.914;2022-11-21T10:47:45;3.90;99.90
39849;DHT22;25518;47.878;15.914;2022-11-21T10:51:02;4.20;99.90
39849;DHT22;25518;47.878;15.914;2022-11-21T10:54:03;4.30;99.90
39849;DHT22;25518;47.878;15.914;2022-11-21T10:57:15;4.10;99.90
39849;DHT22;25518;47.878;15.914;2022-11-21T11:00:16;4.10;99.90
39849;DHT22;25518;47.878;15.914;2022-11-21T11:03:15;3.80;99.90
39849;DHT22;25518;47.878;15.914;2022-11-21T11:06:04;3.80;99.90
39849;DHT22;25518;47.878;15.914;2022-11-21T11:08:54;3.90;99.90
39849;DHT22;25518;47.878;15.914;2022-11-21T11:11:43;4.00;99.90
39849;DHT22;25518;47.878;15.914;2022-11-21T11:14:33;4.10;99.90
39849;DHT22;25518;47.878;15.914;2022-11-21T11:17:28;4.30;99.90
39849;DHT22;25518;47.878;15.914;2022-11-21T11:20:39;4.40;99.90
39849;DHT22;25518;47.878;15.914;2022-11-21T11:23:29;4.50;99.90
39849;DHT22;25518;47.878;15.914;2022-11-21T11:26:24;4.60;99.90
39849;DHT22;25518;47.878;15.914;2022-11-21T11:32:16;4.50;99.90
39849;DHT22;25518;47.878;15.914;2022-11-21T11:35:20;4.40;99.90
39849;DHT22;25518;47.878;15.914;2022-11-21T11:38:12;4.50;99.90
39849;DHT22;25518;47.878;15.914;2022-11-21T11:41:10;4.50;99.90
39849;DHT22;25518;47.878;15.914;2022-11-21T11:44:02;4.40;99.90
39849;DHT22;25518;47.878;15.914;2022-11-21T11:47:22;4.50;99.90
39849;DHT22;25518;47.878;15.914;2022-11-21T11:50:42;4.40;99.90
39849;DHT22;25518;47.878;15.914;2022-11-21T11:53:38;4.70;99.90
39849;DHT22;25518;47.878;15.914;2022-11-21T11:56:33;4.50;99.90
39849;DHT22;25518;47.878;15.914;2022-11-21T11:59:28;4.60;99.90
39849;DHT22;25518;47.878;15.914;2022-11-21T12:02:24;4.70;99.90
39849;DHT22;25518;47.878;15.914;2022-11-21T12:05:22;4.90;99.90
39849;DHT22;25518;47.878;15.914;2022-11-21T12:08:19;5.00;99.90
39849;DHT22;25518;47.878;15.914;2022-11-21T12:12:18;5.20;99.90
39849;DHT22;25518;47.878;15.914;2022-11-21T12:24:02;5.90;99.90
39849;DHT22;25518;47.878;15.914;2022-11-21T12:30:59;6.20;99.90
39849;DHT22;25518;47.878;15.914;2022-11-21T12:33:34;6.10;99.90
39849;DHT22;25518;47.878;15.914;2022-11-21T12:40:03;6.00;99.90
39849;DHT22;25518;47.878;15.914;2022-11-21T12:43:39;6.20;99.90
39849;DHT22;25518;47.878;15.914;2022-11-21T12:46:27;6.10;99.90
39849;DHT22;25518;47.878;15.914;2022-11-21T12:49:26;6.00;99.90
39849;DHT22;25518;47.878;15.914;2022-11-21T12:52:42;5.90;99.90
39849;DHT22;25518;47.878;15.914;2022-11-21T12:55:58;6.10;99.90
39849;DHT22;25518;47.878;15.914;2022-11-21T12:58:52;6.10;99.90
39849;DHT22;25518;47.878;15.914;2022-11-21T13:01:54;6.20;99.90
39849;DHT22;25518;47.878;15.914;2022-11-21T13:04:49;6.20;99.90
39849;DHT22;25518;47.878;15.914;2022-11-21T13:07:39;6.20;99.90
39849;DHT22;25518;47.878;15.914;2022-11-21T13:10:30;6.20;99.90
39849;DHT22;25518;47.878;15.914;2022-11-21T13:13:22;6.20;99.90
39849;DHT22;25518;47.878;15.914;2022-11-21T13:16:18;6.20;99.90
39849;DHT22;25518;47.878;15.914;2022-11-21T13:22:56;6.00;99.90
39849;DHT22;25518;47.878;15.914;2022-11-21T13:25:46;5.70;99.90
39849;DHT22;25518;47.878;15.914;2022-11-21T13:28:36;5.60;99.90
39849;DHT22;25518;47.878;15.914;2022-11-21T13:31:28;5.60;99.90
39849;DHT22;25518;47.878;15.914;2022-11-21T13:34:36;5.60;99.90
39849;DHT22;25518;47.878;15.914;2022-11-21T13:40:43;5.80;99.90
39849;DHT22;25518;47.878;15.914;2022-11-21T13:44:42;6.10;99.90
39849;DHT22;25518;47.878;15.914;2022-11-21T13:48:00;6.40;99.90
39849;DHT22;25518;47.878;15.914;2022-11-21T13:59:59;5.90;99.90
39849;DHT22;25518;47.878;15.914;2022-11-21T14:09:20;5.20;99.90
39849;DHT22;25518;47.878;15.914;2022-11-21T14:12:27;5.10;99.90
39849;DHT22;25518;47.878;15.914;2022-11-21T14:15:44;4.90;99.90
39849;DHT22;25518;47.878;15.914;2022-11-21T14:18:42;4.80;99.90
39849;DHT22;25518;47.878;15.914;2022-11-21T14:21:33;4.60;99.90
39849;DHT22;25518;47.878;15.914;2022-11-21T14:24:23;4.30;99.90
39849;DHT22;25518;47.878;15.914;2022-11-21T14:27:24;4.10;99.90
39849;DHT22;25518;47.878;15.914;2022-11-21T14:30:36;4.00;99.90
39849;DHT22;25518;47.878;15.914;2022-11-21T14:36:21;4.00;99.90
39849;DHT22;25518;47.878;15.914;2022-11-21T14:39:15;3.90;99.90
39849;DHT22;25518;47.878;15.914;2022-11-21T14:42:09;3.70;99.90
39849;DHT22;25518;47.878;15.914;2022-11-21T14:45:20;3.60;99.90
39849;DHT22;25518;47.878;15.914;2022-11-21T14:48:11;3.40;99.90
39849;DHT22;25518;47.878;15.914;2022-11-21T14:51:01;3.40;99.90
39849;DHT22;25518;47.878;15.914;2022-11-21T14:53:52;3.30;99.90
39849;DHT22;25518;47.878;15.914;2022-11-21T14:56:42;3.20;99.90
39849;DHT22;25518;47.878;15.914;2022-11-21T14:59:38;3.00;99.90
39849;DHT22;25518;47.878;15.914;2022-11-21T15:02:31;2.80;99.90
39849;DHT22;25518;47.878;15.914;2022-11-21T15:05:29;2.70;99.90
39849;DHT22;25518;47.878;15.914;2022-11-21T15:08:23;2.80;99.90
39849;DHT22;25518;47.878;15.914;2022-11-21T15:11:13;2.70;99.90
39849;DHT22;25518;47.878;15.914;2022-11-21T15:14:28;2.70;99.90
39849;DHT22;25518;47.878;15.914;2022-11-21T15:17:21;2.70;99.90
39849;DHT22;25518;47.878;15.914;2022-11-21T15:23:01;2.60;99.90
39849;DHT22;25518;47.878;15.914;2022-11-21T15:25:50;2.60;99.90
39849;DHT22;25518;47.878;15.914;2022-11-21T15:28:53;2.60;99.90
39849;DHT22;25518;47.878;15.914;2022-11-21T15:31:43;2.60;99.90
39849;DHT22;25518;47.878;15.914;2022-11-21T15:34:33;2.50;99.90
39849;DHT22;25518;47.878;15.914;2022-11-21T15:37:22;2.40;99.90
39849;DHT22;25518;47.878;15.914;2022-11-21T15:40:18;2.30;99.90
39849;DHT22;25518;47.878;15.914;2022-11-21T15:43:08;2.30;99.90
39849;DHT22;25518;47.878;15.914;2022-11-21T15:46:02;2.20;99.90
39849;DHT22;25518;47.878;15.914;2022-11-21T15:48:56;2.10;99.90
39849;DHT22;25518;47.878;15.914;2022-11-21T15:51:48;2.10;99.90
39849;DHT22;25518;47.878;15.914;2022-11-21T15:54:38;2.20;99.90
39849;DHT22;25518;47.878;15.914;2022-11-21T15:57:27;2.10;99.90
39849;DHT22;25518;47.878;15.914;2022-11-21T16:00:17;2.00;99.90
39849;DHT22;25518;47.878;15.914;2022-11-21T16:03:06;1.90;99.90
39849;DHT22;25518;47.878;15.914;2022-11-21T16:05:56;1.90;99.90
39849;DHT22;25518;47.878;15.914;2022-11-21T16:08:46;1.80;99.90
39849;DHT22;25518;47.878;15.914;2022-11-21T16:11:37;1.80;99.90
39849;DHT22;25518;47.878;15.914;2022-11-21T16:14:28;1.80;99.90
39849;DHT22;25518;47.878;15.914;2022-11-21T16:17:18;2.00;99.90
39849;DHT22;25518;47.878;15.914;2022-11-21T16:20:08;1.90;99.90
39849;DHT22;25518;47.878;15.914;2022-11-21T16:22:58;1.80;99.90
39849;DHT22;25518;47.878;15.914;2022-11-21T16:25:51;1.80;99.90
39849;DHT22;25518;47.878;15.914;2022-11-21T16:28:41;1.70;99.90
39849;DHT22;25518;47.878;15.914;2022-11-21T16:31:31;1.60;99.90
39849;DHT22;25518;47.878;15.914;2022-11-21T16:34:21;1.60;99.90
39849;DHT22;25518;47.878;15.914;2022-11-21T16:37:10;1.50;99.90
39849;DHT22;25518;47.878;15.914;2022-11-21T16:40:00;1.50;99.90
39849;DHT22;25518;47.878;15.914;2022-11-21T16:42:50;1.40;99.90
39849;DHT22;25518;47.878;15.914;2022-11-21T16:45:40;1.40;99.90
39849;DHT22;25518;47.878;15.914;2022-11-21T16:48:29;1.40;99.90
39849;DHT22;25518;47.878;15.914;2022-11-21T16:51:20;1.30;99.90
39849;DHT22;25518;47.878;15.914;2022-11-21T16:54:10;1.30;99.90
39849;DHT22;25518;47.878;15.914;2022-11-21T16:57:00;1.10;99.90
39849;DHT22;25518;47.878;15.914;2022-11-21T16:59:49;1.10;99.90
39849;DHT22;25518;47.878;15.914;2022-11-21T17:02:39;1.10;99.90
39849;DHT22;25518;47.878;15.914;2022-11-21T17:05:29;1.00;99.90
39849;DHT22;25518;47.878;15.914;2022-11-21T17:08:19;1.10;99.90
39849;DHT22;25518;47.878;15.914;2022-11-21T17:14:03;1.00;99.90
39849;DHT22;25518;47.878;15.914;2022-11-21T17:16:53;1.00;99.90
39849;DHT22;25518;47.878;15.914;2022-11-21T17:19:43;0.90;99.90
39849;DHT22;25518;47.878;15.914;2022-11-21T17:22:33;0.80;99.90
39849;DHT22;25518;47.878;15.914;2022-11-21T17:25:23;0.50;99.90
39849;DHT22;25518;47.878;15.914;2022-11-21T17:28:12;0.60;99.90
39849;DHT22;25518;47.878;15.914;2022-11-21T17:31:08;0.70;99.90
39849;DHT22;25518;47.878;15.914;2022-11-21T17:33:59;0.60;99.90
39849;DHT22;25518;47.878;15.914;2022-11-21T17:36:49;0.60;99.90
39849;DHT22;25518;47.878;15.914;2022-11-21T17:39:38;0.60;99.90
39849;DHT22;25518;47.878;15.914;2022-11-21T17:42:28;0.50;99.90
39849;DHT22;25518;47.878;15.914;2022-11-21T17:45:18;0.30;99.90
39849;DHT22;25518;47.878;15.914;2022-11-21T17:48:07;0.20;99.90
39849;DHT22;25518;47.878;15.914;2022-11-21T17:51:03;0.50;99.90
39849;DHT22;25518;47.878;15.914;2022-11-21T17:53:53;0.50;99.90
39849;DHT22;25518;47.878;15.914;2022-11-21T17:56:43;0.40;99.90
39849;DHT22;25518;47.878;15.914;2022-11-21T17:59:32;0.50;99.90
39849;DHT22;25518;47.878;15.914;2022-11-21T18:02:22;0.40;99.90
39849;DHT22;25518;47.878;15.914;2022-11-21T18:05:12;0.30;99.90
39849;DHT22;25518;47.878;15.914;2022-11-21T18:08:02;0.20;99.90
39849;DHT22;25518;47.878;15.914;2022-11-21T18:10:52;0.30;99.90
39849;DHT22;25518;47.878;15.914;2022-11-21T18:13:42;0.20;99.90
39849;DHT22;25518;47.878;15.914;2022-11-21T18:16:32;0.40;99.90
39849;DHT22;25518;47.878;15.914;2022-11-21T18:19:22;0.50;99.90
39849;DHT22;25518;47.878;15.914;2022-11-21T18:22:12;0.40;99.90
39849;DHT22;25518;47.878;15.914;2022-11-21T18:25:01;0.10;99.90
39849;DHT22;25518;47.878;15.914;2022-11-21T18:27:51;0.30;99.90
39849;DHT22;25518;47.878;15.914;2022-11-21T18:30:41;0.30;99.90
39849;DHT22;25518;47.878;15.914;2022-11-21T18:33:30;0.30;99.90
39849;DHT22;25518;47.878;15.914;2022-11-21T18:36:21;0.00;99.90
39849;DHT22;25518;47.878;15.914;2022-11-21T18:39:10;0.00;99.90
39849;DHT22;25518;47.878;15.914;2022-11-21T18:42:00;0.00;99.90
39849;DHT22;25518;47.878;15.914;2022-11-21T18:44:50;-0.30;99.90
39849;DHT22;25518;47.878;15.914;2022-11-21T18:47:41;-0.20;99.90
39849;DHT22;25518;47.878;15.914;2022-11-21T18:50:32;-0.10;99.90
39849;DHT22;25518;47.878;15.914;2022-11-21T18:53:22;0.10;99.90
39849;DHT22;25518;47.878;15.914;2022-11-21T18:56:13;0.10;99.90
39849;DHT22;25518;47.878;15.914;2022-11-21T18:59:04;-0.10;99.90
39849;DHT22;25518;47.878;15.914;2022-11-21T19:01:55;0.00;99.90
39849;DHT22;25518;47.878;15.914;2022-11-21T19:04:45;-0.50;99.90
39849;DHT22;25518;47.878;15.914;2022-11-21T19:07:34;-0.10;99.90
39849;DHT22;25518;47.878;15.914;2022-11-21T19:10:24;-0.80;99.90
39849;DHT22;25518;47.878;15.914;2022-11-21T19:13:14;-0.30;99.90
39849;DHT22;25518;47.878;15.914;2022-11-21T19:16:06;-0.40;99.90
39849;DHT22;25518;47.878;15.914;2022-11-21T19:18:55;-0.20;99.90
39849;DHT22;25518;47.878;15.914;2022-11-21T19:21:45;-0.20;99.90
39849;DHT22;25518;47.878;15.914;2022-11-21T19:24:35;-2.40;99.90
39849;DHT22;25518;47.878;15.914;2022-11-21T19:27:25;-0.10;99.90
39849;DHT22;25518;47.878;15.914;2022-11-21T19:30:15;-0.30;99.90
39849;DHT22;25518;47.878;15.914;2022-11-21T19:33:05;-0.10;99.90
39849;DHT22;25518;47.878;15.914;2022-11-21T19:35:59;-0.20;99.90
39849;DHT22;25518;47.878;15.914;2022-11-21T19:38:50;0.00;99.90
39849;DHT22;25518;47.878;15.914;2022-11-21T19:41:40;-0.20;99.90